Poplar, MT

11:48 AM MDT on September 17, 2014 (GMT -0600)
East of Macon | Change Station
CLOSE
Current Station
Personal Weather Station
Location: Wolf Point, MT
Elevation: 1987 ft
Nearby Weather Stations

Elev 1987 ft 48.11 °N, 105.47 °W | Updated 2 minutes ago

Partly Cloudy
Partly Cloudy
70.3 °F
Feels Like 77 °F
N
6.0
Wind Variable Wind from East
Gusts 7.0 mph

Today
High -- | Low -- °F
--% Chance of Precip.
Yesterday
High -- | Low -- °F
Precip. -- in
6:40 AM 7:08 PM
Waning Crescent, 34% visible
Pressure 29.94 in
Visibility 10.0 miles
Clouds Clear
Heat Index 77 °F
Dew Point 52 °F
Humidity 52%
Rainfall 0.00 in
Snow Depth 1 in , 0 in , 0 in
UV 4 out of 12
Pollen 5.60 out of 12
Air Quality Not available.
Flu Activity Not available.
METAR KOLF 171653Z AUTO 09004KT 10SM CLR 18/07 A2993 RMK AO2 SLP138 T01780072

More Conditions Fewer Conditions

Pressure 29.94 in
Visibility 10.0 miles
Clouds Clear
Heat Index 77 °F
Dew Point 52 °F
Humidity 52%
Rainfall 0.00 in
Snow Depth 1 in , 0 in , 0 in
UV 4 out of 12
Pollen 5.60 out of 12
Air Quality Not available.
Flu Activity Not available.
METAR KOLF 171653Z AUTO 09004KT 10SM CLR 18/07 A2993 RMK AO2 SLP138 T01780072

More Conditions Fewer Conditions

10-Day Weather Forecast

Almanac

Astronomy

Sep. 17, 2014 Rise Set
Actual Time 6:40 AM MDT 7:08 PM MDT
Civil Twilight 6:09 AM MDT 7:40 PM MDT
Nautical Twilight 5:32 AM MDT 8:16 PM MDT
Astronomical Twilight 4:53 AM MDT 8:55 PM MDT
Moon 12:23 AM MDT 3:38 PM MDT
Length of Visible Light 13h 30m
Length of Day
12h 28m
Tomorrow will be 3m 27s shorter.
Waning Crescent, 34% of the Moon is Illuminated
Today
Waning Crescent
Sep 24
New
Oct 1
First Quarter
Oct 8
Full
Oct 15
Last Quarter

Today's Extremes

State Highs State Lows

Community

WunderPhotos

Upload Photos

1,754,111 photos uploaded!

Nearby

Snow Depth

Station Depth Elevation
Porcupine 1 in 6500 ft
Combination 0 in 5600 ft
Spur Park 0 in 8100 ft
Kraft Creek 0 in 4750 ft
Stahl Peak 0 in 6030 ft

Earthquake Activity

City Distance Mag. Time & Date
No recent earthquake activity has been reported nearby.
Minimum magnitude displayed is 2.5.

Coastal Water Temperatures

Place Temperature
No Stations Reporting

Nearby Weather Stations